createdAt,value
2018-12-31T18:23:42.835Z,11.13
2018-12-31T18:26:11.747Z,15.63
2018-12-31T18:28:40.526Z,18.17
2018-12-31T18:31:09.280Z,28.80
2018-12-31T18:33:38.102Z,43.60
2018-12-31T18:36:07.777Z,45.10
2018-12-31T18:38:36.827Z,47.63
2018-12-31T18:41:05.703Z,56.47
2018-12-31T18:43:34.533Z,58.17
2018-12-31T18:46:03.282Z,56.83
2018-12-31T18:48:32.379Z,51.50
2018-12-31T18:51:01.663Z,39.70
2018-12-31T18:53:31.124Z,72.30
2018-12-31T18:55:59.873Z,46.27
2018-12-31T18:58:28.787Z,44.80
2018-12-31T19:00:57.656Z,57.27
2018-12-31T19:03:26.811Z,48.87
2018-12-31T19:05:55.666Z,39.40
2018-12-31T19:08:24.420Z,34.50
2018-12-31T19:10:53.331Z,43.73
2018-12-31T19:13:22.140Z,38.27
2018-12-31T19:15:51.011Z,48.90
2018-12-31T19:18:20.007Z,51.37
2018-12-31T19:20:48.911Z,41.37
2018-12-31T19:23:17.763Z,54.13
2018-12-31T19:25:46.599Z,49.13
2018-12-31T19:28:15.335Z,47.83
2018-12-31T19:30:44.296Z,40.00
2018-12-31T19:33:13.119Z,37.10
2018-12-31T19:35:42.104Z,39.10
2018-12-31T19:38:11.013Z,31.53
2018-12-31T19:40:39.890Z,30.63
2018-12-31T19:43:08.890Z,29.33
2018-12-31T19:45:37.878Z,32.50
2018-12-31T19:48:06.660Z,48.37
2018-12-31T19:50:35.457Z,41.10
2018-12-31T19:53:04.566Z,35.00
2018-12-31T19:55:33.705Z,28.87
2018-12-31T19:58:02.529Z,29.70
2018-12-31T20:00:31.699Z,26.20
2018-12-31T20:03:00.687Z,30.70
2018-12-31T20:05:30.816Z,34.47
2018-12-31T20:08:00.126Z,27.95
2018-12-31T20:10:31.700Z,31.10
2018-12-31T20:13:00.541Z,35.53
2018-12-31T20:15:29.792Z,22.67
2018-12-31T20:17:59.066Z,73.07
2018-12-31T20:20:28.181Z,44.87
2018-12-31T20:22:57.531Z,55.33
2018-12-31T20:25:26.636Z,95.00
2018-12-31T20:27:56.614Z,79.30
2018-12-31T20:30:25.756Z,80.83
2018-12-31T20:32:54.826Z,80.83
2018-12-31T20:35:26.219Z,54.23
2018-12-31T20:37:57.208Z,39.60
2018-12-31T20:40:27.041Z,35.40
2018-12-31T20:42:55.974Z,38.83
2018-12-31T20:45:25.915Z,35.53
2018-12-31T20:48:01.809Z,34.63
2018-12-31T20:50:25.700Z,33.10
2018-12-31T20:52:55.596Z,34.08
2018-12-31T20:55:24.561Z,34.10
2018-12-31T20:57:53.500Z,37.03
2018-12-31T21:00:22.566Z,36.55
2018-12-31T21:02:54.441Z,50.40
2018-12-31T21:05:23.931Z,50.17
2018-12-31T21:07:53.307Z,42.03
2018-12-31T21:10:22.481Z,41.60
2018-12-31T21:12:54.053Z,34.33
2018-12-31T21:15:23.408Z,37.40
2018-12-31T21:17:53.729Z,25.70
2018-12-31T21:20:23.960Z,32.60
2018-12-31T21:22:53.077Z,38.75
2018-12-31T21:25:22.130Z,32.48
2018-12-31T21:27:52.222Z,28.57
2018-12-31T21:30:21.441Z,40.17
2018-12-31T21:32:50.313Z,36.80
2018-12-31T21:35:19.163Z,38.77
2018-12-31T21:37:48.220Z,38.08
2018-12-31T21:40:17.516Z,35.17
2018-12-31T21:42:46.610Z,34.67
2018-12-31T21:45:16.243Z,29.37
2018-12-31T21:47:45.223Z,26.13
2018-12-31T21:50:14.551Z,27.50
2018-12-31T21:52:43.773Z,27.07
2018-12-31T21:55:13.974Z,30.17
2018-12-31T21:57:43.586Z,26.13
2018-12-31T22:00:12.570Z,25.53
2018-12-31T22:02:41.659Z,28.23
2018-12-31T22:05:10.645Z,25.80
2018-12-31T22:07:39.729Z,34.27
2018-12-31T22:10:09.054Z,28.90
2018-12-31T22:12:37.915Z,26.10
2018-12-31T22:15:08.782Z,24.30
2018-12-31T22:17:37.544Z,18.30
2018-12-31T22:20:08.227Z,18.77
2018-12-31T22:22:37.327Z,20.53
2018-12-31T22:25:06.960Z,15.63
2018-12-31T22:27:36.400Z,62.97
2018-12-31T22:30:10.071Z,27.00
2018-12-31T22:32:38.956Z,25.63
2018-12-31T22:35:07.903Z,18.73
2018-12-31T22:37:36.779Z,19.93
2018-12-31T22:40:06.076Z,21.00
2018-12-31T22:42:35.075Z,24.43
2018-12-31T22:45:05.824Z,24.97
2018-12-31T22:47:35.011Z,34.27
2018-12-31T22:50:04.205Z,39.37
2018-12-31T22:52:33.373Z,36.47
2018-12-31T22:55:02.742Z,29.57
2018-12-31T22:57:31.665Z,27.03
2018-12-31T23:00:00.564Z,31.03
2018-12-31T23:02:29.490Z,41.03
2018-12-31T23:04:58.976Z,70.43
2018-12-31T23:07:28.207Z,94.37
2018-12-31T23:09:57.191Z,153.23
2018-12-31T23:12:26.786Z,248.97
2018-12-31T23:14:56.803Z,330.12
2018-12-31T23:17:25.676Z,250.45
2018-12-31T23:19:55.188Z,224.23
2018-12-31T23:22:24.259Z,281.93
2018-12-31T23:24:53.196Z,306.63
2018-12-31T23:27:22.274Z,333.80
2018-12-31T23:29:51.794Z,265.05
2018-12-31T23:32:22.695Z,226.35
2018-12-31T23:34:54.359Z,276.92
2018-12-31T23:37:23.672Z,219.85
2018-12-31T23:39:52.731Z,216.08
2018-12-31T23:42:22.041Z,283.70
2018-12-31T23:44:53.022Z,226.90
2018-12-31T23:47:26.206Z,222.93
2018-12-31T23:49:55.103Z,202.28
2018-12-31T23:52:24.995Z,209.67
2018-12-31T23:54:53.898Z,201.90
2018-12-31T23:57:25.061Z,167.43
2018-12-31T23:59:54.364Z,168.02
